Startpagina
METAR-TAF:

METAR-TAF

Vliegvelden :

Luchthaven Riga

Riga, Letland

breedte: 56-55N, lengte: 023-58E, hoogte: 10 m

Actueel weer

Dit bericht is 11 minuten geleden gemaakt, om 12:50 UTC
Wind 10 kt uit het zuidoosten, variërend tussen het oostzuidoosten en het zuiden
Temperatuur -1°C
Vochtigheid 74%
Druk 1027 hPa
Zicht 10 km of meer
Weinig wolken op 2700 ft

METAR: EVRA 221250Z 14010KT 110V170 9999 FEW027 M01/M05 Q1027 R18/090095 NOSIG

Tijdstip: 15:01 (13:01 UTC)

Verwachting

Dit bericht is 2 uur en het 1 minuten geleden gemaakt, om 11:00 UTC
Verwachting geldig van 22 om 12 UTC tot 23 om 12 UTC
Wind 10 kt uit het zuidoosten
Zicht 10 km of meer
Gebroken wolken op 2000 ft
Tijdelijke
van 22 om 12 UTC tot 22 om 15 UTC
Wind 15 kt uit het zuidoosten met uitschieters tot 28 kt

TAF: EVRA 221100Z 2212/2312 13010KT 9999 BKN020 TEMPO 2212/2215 14015G28KT

Waarnemingen en weersverwachtingen van meer dan 4000 vliegvelden (METAR en TAF).

De beschikbare stations zijn de gele en rode punten op de kaart.

Ga met uw muis naar het station om de naam te zien.

Klik dan om waarnemingen en weersverwachtingen te zien.

kaart wijzigen: klik op de groene knoppen met een zwart kruis om in te zoomen, op de groene knop met een streepje om uit te zoomen of op de groene pijlen voor aangrenzende kaarten.


METAR-TAF: